Aérodrome :
LOGIN :

S'inscrire | Disclaimer

   EN    FR    IT 

 










Légende :    VFR   VFR Marginal   IFR   IFR Intensif   IFR Très Intensif
Visi : 
Plafond : 
>= 8 km
>= 3000ft
5 à 8 km
1000 à 3000 ft
1500m à 5 km
500 à 1000 ft
800 à 1500m
200 à 500 ft
< 800m
< 200 ft
Symboles :   Orages  Brouillard  Fortes neiges  Fortes précipitations  Vent > 20 kt
SIGMETs :   Divers  Orages  Givrage  Turbulence  Onde Orograph.  Cendres Volcan.







- Altitude de l'aérodrome : 464 ft
- Code IATA : EVX
- Voir les cartes d'approche


LFOE - Evreux

DERNIER METAR :
  • 260500Z AUTO 21012KT 9999 OVC019 06/03 Q1013

METARs EXPIRÉS :
  • 260430Z AUTO 20009KT 9999 BKN022 OVC096 06/03 Q1014
  • 260400Z AUTO 20008KT CAVOK 06/03 Q1013
  • 260330Z AUTO 20010KT CAVOK 06/02 Q1014
  • 260300Z AUTO 20009KT CAVOK 06/02 Q1014
  • 260230Z AUTO 20007KT CAVOK 06/02 Q1014

TAF TAF LFOE
Valide du 26 à 03h jusqu'au 27 à 03h UTC


260200Z 2603/2703 22006KT CAVOK
Pas de NOTAMs connus pour ce terrain.



MET'MAP, la Météo Aéronautique d'un coup d'oeil ! - Copyright ORBIFLY Décembre 2007 - Disclaimer

ORBIFLY MET'MAP TEAM :

Programmation & Développement : Alexandra Zaïnal
Conception & Développement : Baudouin d'Aumeries
Co-Programmation & Développement : Marc-Olivier Méhu
Soutien technique & logistique : Manuel Goepfert

Contact : metmap@orbifly.com




SOURCES & CREDITS :

   NOAA